createdAt,value
2022-09-07T13:53:27.602Z,1.55
2022-09-07T13:56:16.627Z,1.40
2022-09-07T13:58:49.808Z,1.67
2022-09-07T14:01:23.067Z,1.58
2022-09-07T14:03:59.725Z,1.65
2022-09-07T14:06:31.573Z,1.48
2022-09-07T14:09:14.626Z,1.63
2022-09-07T14:11:52.700Z,1.55
2022-09-07T14:14:33.302Z,1.52
2022-09-07T14:17:00.659Z,1.73
2022-09-07T14:19:39.285Z,1.83
2022-09-07T14:22:12.419Z,1.23
2022-09-07T14:24:54.510Z,1.10
2022-09-07T14:27:42.558Z,1.70
2022-09-07T14:30:15.931Z,1.80
2022-09-07T14:32:44.123Z,1.50
2022-09-07T14:35:13.410Z,1.30
2022-09-07T14:37:41.302Z,1.23
2022-09-07T14:40:21.835Z,1.00
2022-09-07T14:42:50.225Z,1.25
2022-09-07T14:45:22.015Z,1.23
2022-09-07T14:47:54.826Z,1.67
2022-09-07T14:50:26.436Z,1.20
2022-09-07T14:55:45.615Z,1.38
2022-09-07T14:58:15.898Z,1.30
2022-09-07T15:01:37.082Z,1.35
2022-09-07T15:03:39.396Z,1.20
2022-09-07T15:06:09.012Z,1.10
2022-09-07T15:08:38.673Z,1.40
2022-09-07T15:11:37.193Z,1.42
2022-09-07T15:14:19.126Z,1.40
2022-09-07T15:19:50.268Z,1.50
2022-09-07T15:22:22.006Z,1.45
2022-09-07T15:24:50.254Z,1.50
2022-09-07T15:27:28.501Z,1.52
2022-09-07T15:29:55.817Z,1.60
2022-09-07T15:32:23.166Z,1.98
2022-09-07T15:34:50.491Z,1.70
2022-09-07T15:40:20.567Z,1.70
2022-09-07T15:43:16.403Z,2.42
2022-09-07T15:45:35.410Z,1.98
2022-09-07T15:48:03.977Z,1.88
2022-09-07T15:50:31.264Z,1.60
2022-09-07T15:53:01.064Z,2.22
2022-09-07T15:55:28.407Z,2.78
2022-09-07T15:58:09.081Z,2.88
2022-09-07T16:00:39.486Z,2.45
2022-09-07T16:03:07.841Z,2.97
2022-09-07T16:05:39.897Z,3.05
2022-09-07T16:10:55.840Z,2.58
2022-09-07T16:13:24.386Z,2.40
2022-09-07T16:15:52.080Z,2.63
2022-09-07T16:18:19.481Z,2.53
2022-09-07T16:20:47.258Z,2.63
2022-09-07T16:23:16.380Z,3.00
2022-09-07T16:25:59.077Z,2.42
2022-09-07T16:28:27.646Z,1.98
2022-09-07T16:30:56.288Z,1.77
2022-09-07T16:33:32.813Z,1.60
2022-09-07T16:36:06.858Z,1.83
2022-09-07T16:38:49.846Z,1.73
2022-09-07T16:41:20.445Z,1.95
2022-09-07T16:43:48.016Z,2.13
2022-09-07T16:46:17.889Z,2.33
2022-09-07T16:48:45.339Z,2.20
2022-09-07T16:51:14.746Z,2.13
2022-09-07T16:53:42.195Z,1.77
2022-09-07T16:56:12.124Z,1.70
2022-09-07T16:58:41.952Z,2.08
2022-09-07T17:01:12.429Z,1.90
2022-09-07T17:03:40.618Z,2.13
2022-09-07T17:06:10.326Z,1.90
2022-09-07T17:08:39.195Z,1.80
2022-09-07T17:11:15.718Z,2.30
2022-09-07T17:13:43.683Z,1.75
2022-09-07T17:16:13.377Z,1.88
2022-09-07T17:21:35.198Z,1.75
2022-09-07T17:24:04.258Z,1.83
2022-09-07T17:26:32.492Z,2.30
2022-09-07T17:29:00.978Z,1.65
2022-09-07T17:34:21.956Z,1.70
2022-09-07T17:36:49.281Z,2.22
2022-09-07T17:39:18.598Z,1.88
2022-09-07T17:41:52.584Z,1.33
2022-09-07T17:44:21.616Z,2.13
2022-09-07T17:46:49.207Z,1.10
2022-09-07T17:49:16.885Z,1.55
2022-09-07T17:51:45.038Z,1.27
2022-09-07T17:54:14.938Z,1.63
2022-09-07T17:56:42.826Z,1.58
2022-09-07T18:01:58.514Z,1.42
2022-09-07T18:04:26.038Z,1.73
2022-09-07T18:06:54.473Z,1.45
2022-09-07T18:09:21.996Z,1.48
2022-09-07T18:11:50.057Z,1.80
2022-09-07T18:14:18.925Z,2.00
2022-09-07T18:16:49.268Z,1.80
2022-09-07T18:19:18.292Z,1.88
2022-09-07T18:21:47.648Z,1.40
2022-09-07T18:24:23.644Z,1.85
2022-09-07T18:26:53.025Z,1.63
2022-09-07T18:29:33.555Z,1.98
2022-09-07T18:32:04.646Z,2.10
2022-09-07T18:34:33.356Z,1.45
2022-09-07T18:37:01.143Z,2.00
2022-09-07T18:39:28.566Z,1.83
2022-09-07T18:41:56.152Z,2.00
2022-09-07T18:47:21.712Z,2.53
2022-09-07T18:49:51.562Z,2.38
2022-09-07T18:55:09.791Z,1.75
2022-09-07T18:57:37.462Z,1.77
2022-09-07T19:00:09.430Z,1.90
2022-09-07T19:02:36.994Z,1.77
2022-09-07T19:07:52.128Z,2.30
2022-09-07T19:10:19.562Z,2.17
2022-09-07T19:12:47.099Z,3.47
2022-09-07T19:15:14.803Z,2.20
2022-09-07T19:17:42.097Z,2.85
2022-09-07T19:20:10.265Z,2.72
2022-09-07T19:22:37.754Z,1.90
2022-09-07T19:25:06.090Z,2.20
2022-09-07T19:27:33.381Z,2.25
2022-09-07T19:30:01.126Z,3.03
2022-09-07T19:32:28.905Z,2.90
2022-09-07T19:34:56.189Z,3.17
2022-09-07T19:37:28.104Z,3.97
2022-09-07T19:39:55.713Z,3.20
2022-09-07T19:42:24.091Z,3.58
2022-09-07T19:44:52.284Z,3.08
2022-09-07T19:47:20.231Z,3.22
2022-09-07T19:49:47.536Z,2.85
2022-09-07T19:52:15.375Z,2.88
2022-09-07T19:54:42.841Z,2.65
2022-09-07T19:57:10.142Z,2.60
2022-09-07T19:59:37.415Z,2.70
2022-09-07T20:02:06.112Z,2.95
2022-09-07T20:04:33.512Z,2.72
2022-09-07T20:07:00.975Z,2.60
2022-09-07T20:09:28.267Z,2.75
2022-09-07T20:11:55.484Z,2.92
2022-09-07T20:14:22.764Z,2.50
2022-09-07T20:16:50.393Z,2.92
2022-09-07T20:19:18.223Z,2.88
2022-09-07T20:21:45.505Z,2.78
2022-09-07T20:24:14.408Z,2.67
2022-09-07T20:26:41.742Z,3.03
2022-09-07T20:29:27.809Z,3.00
2022-09-07T20:31:57.565Z,3.42
2022-09-07T20:34:25.615Z,3.13
2022-09-07T20:36:53.047Z,2.92
2022-09-07T20:39:21.590Z,2.28
2022-09-07T20:41:48.951Z,3.45
2022-09-07T20:44:17.020Z,2.85
2022-09-07T20:46:44.455Z,2.55
2022-09-07T20:49:11.807Z,2.35
2022-09-07T20:51:39.088Z,3.22
2022-09-07T20:54:07.366Z,3.55
2022-09-07T20:56:35.042Z,3.05
2022-09-07T20:59:03.742Z,3.13
2022-09-07T21:01:32.702Z,3.13
2022-09-07T21:04:00.979Z,2.63
2022-09-07T21:06:30.740Z,2.67
2022-09-07T21:08:58.342Z,3.03
2022-09-07T21:11:29.080Z,3.08
2022-09-07T21:14:06.177Z,2.50
2022-09-07T21:16:35.025Z,3.08
2022-09-07T21:19:04.790Z,2.60
2022-09-07T21:21:39.094Z,2.42
2022-09-07T21:24:14.430Z,3.03
2022-09-07T21:26:41.974Z,2.78
2022-09-07T21:29:15.708Z,2.97
2022-09-07T21:31:43.149Z,3.05
2022-09-07T21:34:10.814Z,2.60
2022-09-07T21:36:38.511Z,3.00
2022-09-07T21:39:06.631Z,2.70
2022-09-07T21:41:34.162Z,3.20
2022-09-07T21:44:03.292Z,3.17
2022-09-07T21:46:32.388Z,2.60
2022-09-07T21:49:00.321Z,2.88
2022-09-07T21:51:28.152Z,3.03
2022-09-07T21:53:57.671Z,2.67
2022-09-07T21:56:25.854Z,2.92
2022-09-07T21:59:01.309Z,2.85
2022-09-07T22:01:30.081Z,3.08
2022-09-07T22:03:59.589Z,2.95
2022-09-07T22:06:30.042Z,2.88
2022-09-07T22:08:58.231Z,2.97
2022-09-07T22:11:27.578Z,2.55
2022-09-07T22:14:00.390Z,2.90
2022-09-07T22:16:28.400Z,3.30
2022-09-07T22:18:56.156Z,2.67
2022-09-07T22:21:26.363Z,2.90
2022-09-07T22:23:56.863Z,3.08
2022-09-07T22:26:26.977Z,3.25
2022-09-07T22:28:55.083Z,2.88
2022-09-07T22:31:27.941Z,3.03
2022-09-07T22:33:56.765Z,3.20
2022-09-07T22:36:27.869Z,2.72
2022-09-07T22:39:01.106Z,2.47
2022-09-07T22:41:34.665Z,2.65
2022-09-07T22:44:02.228Z,2.60
2022-09-07T22:46:31.370Z,2.60
2022-09-07T22:48:59.000Z,2.60
2022-09-07T22:51:27.336Z,2.35
2022-09-07T22:53:55.739Z,3.00
2022-09-07T22:56:26.664Z,3.13
2022-09-07T22:58:56.756Z,3.58
2022-09-07T23:01:25.036Z,3.40
2022-09-07T23:03:53.402Z,3.00
2022-09-07T23:06:26.428Z,3.15
2022-09-07T23:08:55.439Z,3.53
2022-09-07T23:11:24.004Z,3.17
2022-09-07T23:13:58.799Z,3.40
2022-09-07T23:18:55.344Z,3.20
2022-09-07T23:21:22.807Z,3.70
2022-09-07T23:23:54.790Z,3.03
2022-09-07T23:26:23.403Z,3.67
2022-09-07T23:28:52.618Z,3.55
2022-09-07T23:31:20.709Z,3.55
2022-09-07T23:33:48.483Z,4.00
2022-09-07T23:36:17.328Z,3.63
2022-09-07T23:38:46.236Z,3.90
2022-09-07T23:41:14.207Z,4.03
2022-09-07T23:43:41.915Z,3.15
2022-09-07T23:46:10.724Z,4.18
2022-09-07T23:48:38.155Z,3.60
2022-09-07T23:51:06.112Z,3.55
2022-09-07T23:53:33.643Z,3.33
2022-09-07T23:56:01.110Z,2.97
2022-09-07T23:58:28.456Z,3.60
